Burnham, ME (04922)

4:34 AM EST on January 26, 2015 (GMT -0500)
Hopkins Road | Change Station
CLOSE
Current Station
Personal Weather Station
Location: Plymouth, ME
Elevation: 341 ft
Nearby Weather Stations
Active Advisory: Blizzard Warning

Elev 341 ft 44.74 °N, 69.17 °W | Updated 4 minutes ago

Clear
Clear
0.9 °F
Feels Like 1 °F
N
0.0
Wind Variable Wind from North
Gusts 0.0 mph

Today
High -- | Low -- °F
--% Chance of Precip.
Yesterday
High -- | Low -- °F
Precip. -- in
7:02 AM 4:37 PM
Waxing Crescent, 41% visible
Pressure 30.06 in
Visibility 10.0 miles
Clouds Clear
Windchill 1 °F
Dew Point -16 °F
Humidity 44%
Rainfall 0.00 in
Snow Depth Not available.
UV 0 out of 12
Pollen .10 out of 12
Air Quality Not available.
Flu Activity Not available.
METAR KWVL 260915Z 27004KT 10SM CLR M16/M22 A3006 RMK AO1

More Conditions Fewer Conditions

Pressure 30.06 in
Visibility 10.0 miles
Clouds Clear
Windchill 1 °F
Dew Point -16 °F
Humidity 44%
Rainfall 0.00 in
Snow Depth Not available.
UV 0 out of 12
Pollen .10 out of 12
Air Quality Not available.
Flu Activity Not available.
METAR KWVL 260915Z 27004KT 10SM CLR M16/M22 A3006 RMK AO1

More Conditions Fewer Conditions

10-Day Weather Forecast

Almanac

Astronomy

Jan. 26, 2015 Rise Set
Actual Time
Civil Twilight
Nautical Twilight
Astronomical Twilight
Moon
Length of Visible Light
Length of Day
Tomorrow will be .
, % of the Moon is Illuminated

Today's Extremes

State Highs State Lows

Community

WunderPhotos

Upload Photos

1,790,163 photos uploaded!

WunderBlogs® & News

Nearby

Air Quality

  Air Quality AQ Index Pollutant
Not available.

Snow Depth

Station Depth Elevation

Earthquake Activity

City Distance Mag. Time & Date
Minimum magnitude displayed is 2.5.

Coastal Water Temperatures

Place Temperature

Nearby Weather Stations